createdAt,value
2018-05-14T00:03:41.421Z,13.33
2018-05-14T00:07:45.241Z,13.60
2018-05-14T00:11:47.817Z,13.90
2018-05-14T00:15:50.346Z,14.33
2018-05-14T00:19:57.859Z,11.80
2018-05-14T00:24:01.143Z,12.63
2018-05-14T00:28:03.857Z,13.13
2018-05-14T00:32:06.427Z,13.07
2018-05-14T00:36:08.978Z,11.93
2018-05-14T00:40:11.540Z,12.27
2018-05-14T00:44:14.442Z,13.13
2018-05-14T00:48:16.971Z,12.80
2018-05-14T00:52:19.631Z,13.87
2018-05-14T00:56:22.191Z,13.90
2018-05-14T01:00:24.750Z,14.73
2018-05-14T01:04:27.273Z,15.87
2018-05-14T01:08:29.831Z,15.53
2018-05-14T01:12:33.058Z,17.47
2018-05-14T01:16:35.609Z,17.07
2018-05-14T01:20:38.149Z,17.73
2018-05-14T01:29:12.521Z,18.53
2018-05-14T01:33:15.172Z,18.20
2018-05-14T01:37:17.698Z,19.57
2018-05-14T01:41:20.250Z,21.00
2018-05-14T01:45:22.780Z,19.53
2018-05-14T01:49:25.339Z,18.97
2018-05-14T01:53:27.858Z,17.50
2018-05-14T01:57:30.410Z,18.33
2018-05-14T02:01:32.935Z,18.77
2018-05-14T02:05:38.350Z,18.90
2018-05-14T02:09:40.881Z,18.30
2018-05-14T02:13:43.462Z,18.40
2018-05-14T02:17:46.020Z,20.17
2018-05-14T02:21:49.613Z,18.50
2018-05-14T02:25:52.137Z,19.30
2018-05-14T02:29:55.078Z,19.20
2018-05-14T02:33:58.399Z,19.53
2018-05-14T02:38:01.723Z,21.03
2018-05-14T02:42:05.067Z,21.53
2018-05-14T02:46:07.618Z,21.93
2018-05-14T02:50:10.158Z,21.70
2018-05-14T02:54:12.715Z,21.43
2018-05-14T02:58:15.359Z,20.30
2018-05-14T03:02:17.912Z,22.13
2018-05-14T03:06:20.446Z,21.67
2018-05-14T03:10:23.981Z,22.63
2018-05-14T03:14:26.413Z,23.37
2018-05-14T03:18:31.674Z,23.57
2018-05-14T03:22:34.222Z,23.63
2018-05-14T03:26:37.215Z,22.53
2018-05-14T03:30:40.499Z,21.47
2018-05-14T03:34:43.047Z,21.70
2018-05-14T03:38:46.347Z,23.03
2018-05-14T03:42:48.904Z,22.77
2018-05-14T03:46:51.516Z,21.67
2018-05-14T03:50:58.356Z,22.20
2018-05-14T03:55:00.916Z,22.90
2018-05-14T03:59:15.988Z,21.10
2018-05-14T04:03:30.236Z,24.03
2018-05-14T04:07:33.132Z,22.63
2018-05-14T04:11:35.659Z,24.90
2018-05-14T04:15:38.235Z,26.17
2018-05-14T04:19:40.759Z,24.27
2018-05-14T04:23:43.341Z,25.20
2018-05-14T04:27:47.364Z,24.10
2018-05-14T04:31:50.847Z,26.03
2018-05-14T04:35:53.376Z,25.90
2018-05-14T04:39:56.686Z,26.60
2018-05-14T04:43:59.207Z,27.63
2018-05-14T04:48:02.627Z,26.83
2018-05-14T04:52:06.110Z,24.77
2018-05-14T04:56:09.097Z,25.33
2018-05-14T05:00:11.726Z,25.60
2018-05-14T05:04:14.266Z,23.90
2018-05-14T05:08:16.782Z,25.13
2018-05-14T05:12:19.342Z,25.43
2018-05-14T05:16:21.876Z,26.03
2018-05-14T05:20:24.420Z,26.57
2018-05-14T05:24:26.941Z,25.37
2018-05-14T05:28:29.540Z,26.83
2018-05-14T05:32:32.047Z,27.43
2018-05-14T05:36:34.588Z,26.57
2018-05-14T05:40:37.108Z,26.53
2018-05-14T05:44:39.750Z,23.17
2018-05-14T05:48:43.027Z,24.43
2018-05-14T05:52:45.566Z,24.17
2018-05-14T05:56:48.094Z,23.33
2018-05-14T06:00:50.639Z,23.23
2018-05-14T06:04:53.162Z,22.20
2018-05-14T06:08:57.809Z,23.43
2018-05-14T06:13:00.331Z,22.47
2018-05-14T06:17:02.882Z,20.87
2018-05-14T06:21:05.420Z,20.20
2018-05-14T06:25:08.071Z,19.23
2018-05-14T06:29:14.518Z,16.90
2018-05-14T06:33:17.063Z,14.90
2018-05-14T06:37:19.607Z,14.13
2018-05-14T06:41:28.362Z,14.67
2018-05-14T06:45:31.642Z,15.83
2018-05-14T06:49:34.191Z,15.27
2018-05-14T06:53:36.710Z,15.93
2018-05-14T06:57:42.623Z,16.37
2018-05-14T07:01:45.138Z,15.77
2018-05-14T07:05:47.685Z,13.73
2018-05-14T07:09:50.214Z,15.60
2018-05-14T07:13:52.864Z,16.10
2018-05-14T07:17:55.383Z,16.27
2018-05-14T07:21:58.702Z,17.07
2018-05-14T07:26:02.183Z,16.03
2018-05-14T07:30:04.767Z,15.37
2018-05-14T07:34:08.082Z,13.63
2018-05-14T07:38:10.974Z,13.80
2018-05-14T07:42:14.262Z,13.30
2018-05-14T07:46:16.898Z,12.87
2018-05-14T07:50:26.735Z,12.77
2018-05-14T07:54:29.932Z,12.00
2018-05-14T07:58:32.216Z,11.53
2018-05-14T08:02:36.219Z,11.15
2018-05-14T08:06:38.743Z,11.98
2018-05-14T08:10:42.561Z,11.30
2018-05-14T08:14:46.056Z,10.68
2018-05-14T08:18:48.607Z,10.35
2018-05-14T08:22:51.891Z,9.02
2018-05-14T08:26:54.430Z,7.90
2018-05-14T08:30:57.910Z,6.90
2018-05-14T08:35:00.858Z,7.60
2018-05-14T08:39:03.370Z,7.07
2018-05-14T08:43:06.270Z,7.80
2018-05-14T08:47:08.783Z,6.73
2018-05-14T08:51:11.327Z,7.40
2018-05-14T08:55:14.629Z,7.13
2018-05-14T08:59:17.170Z,7.23
2018-05-14T09:03:19.798Z,7.20
2018-05-14T09:07:23.124Z,6.90
2018-05-14T09:11:25.646Z,6.53
2018-05-14T09:15:28.400Z,6.97
2018-05-14T09:19:31.782Z,7.30
2018-05-14T09:23:34.234Z,7.03
2018-05-14T09:27:36.755Z,6.60
2018-05-14T09:31:39.310Z,6.97
2018-05-14T09:35:41.827Z,7.00
2018-05-14T09:39:44.368Z,6.57
2018-05-14T09:43:48.830Z,6.13
2018-05-14T09:47:51.370Z,6.03
2018-05-14T09:51:53.874Z,5.80
2018-05-14T09:55:59.736Z,5.50
2018-05-14T10:00:02.250Z,6.00
2018-05-14T10:04:04.876Z,5.30
2018-05-14T10:08:07.386Z,5.93
2018-05-14T10:12:09.934Z,5.73
2018-05-14T10:16:12.491Z,5.67
2018-05-14T10:20:15.110Z,5.00
2018-05-14T10:24:17.624Z,5.57
2018-05-14T10:28:20.940Z,5.03
2018-05-14T10:32:23.461Z,5.00
2018-05-14T10:36:26.875Z,5.43
2018-05-14T10:40:29.388Z,4.63
2018-05-14T10:44:32.774Z,4.73
2018-05-14T10:48:35.281Z,4.83
2018-05-14T10:52:37.825Z,5.07
2018-05-14T10:56:41.121Z,4.87
2018-05-14T11:00:43.661Z,4.97
2018-05-14T11:04:46.930Z,4.40
2018-05-14T11:08:49.474Z,4.83
2018-05-14T11:12:57.042Z,5.37
2018-05-14T11:16:59.582Z,5.00
2018-05-14T11:21:02.091Z,5.40
2018-05-14T11:25:04.638Z,5.53
2018-05-14T11:29:07.146Z,5.33
2018-05-14T11:33:09.707Z,4.60
2018-05-14T11:37:12.228Z,5.00
2018-05-14T11:41:15.551Z,5.30
2018-05-14T11:45:37.313Z,5.70
2018-05-14T11:49:40.643Z,5.00
2018-05-14T11:53:43.930Z,5.50
2018-05-14T11:57:46.518Z,5.43
2018-05-14T12:01:49.047Z,4.50
2018-05-14T12:05:51.646Z,5.53
2018-05-14T12:09:54.166Z,5.07
2018-05-14T12:18:07.959Z,4.77
2018-05-14T12:22:10.451Z,4.70
2018-05-14T12:26:13.363Z,4.57
2018-05-14T12:30:15.940Z,4.77
2018-05-14T12:34:18.939Z,4.77
2018-05-14T12:38:24.268Z,4.40
2018-05-14T12:42:26.995Z,4.77
2018-05-14T12:46:29.527Z,4.67
2018-05-14T12:50:32.079Z,4.10
2018-05-14T12:54:34.591Z,4.33
2018-05-14T12:58:37.136Z,5.10
2018-05-14T13:02:39.647Z,3.97
2018-05-14T13:06:43.075Z,4.40
2018-05-14T13:10:46.371Z,4.33
2018-05-14T13:14:49.042Z,4.03
2018-05-14T13:18:53.311Z,4.40
2018-05-14T13:22:56.100Z,4.00
2018-05-14T13:26:58.623Z,4.13
2018-05-14T13:31:12.114Z,3.90
2018-05-14T13:35:14.658Z,3.53
2018-05-14T13:39:38.760Z,3.37
2018-05-14T13:43:41.274Z,3.50
2018-05-14T13:47:44.179Z,3.60
2018-05-14T13:51:47.470Z,3.60
2018-05-14T13:55:50.022Z,3.20
2018-05-14T13:59:52.543Z,3.00
2018-05-14T14:03:55.092Z,3.30
2018-05-14T14:07:57.609Z,3.37
2018-05-14T14:12:00.949Z,3.77
2018-05-14T14:16:04.437Z,3.27
2018-05-14T14:20:06.997Z,3.07
2018-05-14T14:24:09.623Z,3.20
2018-05-14T14:28:12.903Z,3.43
2018-05-14T14:32:16.210Z,3.13
2018-05-14T14:36:19.875Z,2.87
2018-05-14T14:40:26.315Z,3.10
2018-05-14T14:44:41.683Z,3.30
2018-05-14T14:48:44.210Z,3.20
2018-05-14T14:52:46.795Z,3.27
2018-05-14T14:56:50.244Z,3.07
2018-05-14T15:00:53.328Z,3.17
2018-05-14T15:04:55.859Z,3.00
2018-05-14T15:08:58.444Z,3.00
2018-05-14T15:13:02.178Z,2.93
2018-05-14T15:17:08.553Z,3.10
2018-05-14T15:21:11.076Z,3.07
2018-05-14T15:25:14.500Z,3.20
2018-05-14T15:29:17.037Z,3.37
2018-05-14T15:33:19.967Z,3.40
2018-05-14T15:37:22.483Z,3.20
2018-05-14T15:41:25.080Z,3.27
2018-05-14T15:45:34.011Z,3.80
2018-05-14T15:49:36.903Z,3.70
2018-05-14T15:53:40.220Z,3.00
2018-05-14T15:57:49.314Z,3.17
2018-05-14T16:01:51.935Z,3.27
2018-05-14T16:05:55.315Z,3.50
2018-05-14T16:09:58.679Z,3.23
2018-05-14T16:14:01.370Z,3.70
2018-05-14T16:18:08.829Z,3.50
2018-05-14T16:22:11.423Z,3.70
2018-05-14T16:26:13.945Z,3.63
2018-05-14T16:30:21.301Z,3.63
2018-05-14T16:34:24.590Z,3.37
2018-05-14T16:38:31.829Z,3.40
2018-05-14T16:42:34.394Z,3.00
2018-05-14T16:46:38.871Z,3.30
2018-05-14T16:50:42.431Z,3.13
2018-05-14T16:54:45.734Z,3.07
2018-05-14T16:58:48.278Z,3.57
2018-05-14T17:02:50.830Z,3.33
2018-05-14T17:06:53.343Z,2.97
2018-05-14T17:10:55.907Z,3.63
2018-05-14T17:14:59.344Z,4.10
2018-05-14T17:19:01.963Z,3.43
2018-05-14T17:23:04.489Z,4.40
2018-05-14T17:27:11.592Z,3.93
2018-05-14T17:31:15.139Z,4.13
2018-05-14T17:35:17.687Z,3.43
2018-05-14T17:39:28.809Z,3.87
2018-05-14T17:43:31.509Z,3.77
2018-05-14T17:47:34.092Z,3.50
2018-05-14T17:51:37.486Z,3.80
2018-05-14T17:55:40.015Z,4.00
2018-05-14T17:59:43.355Z,4.13
2018-05-14T18:03:45.969Z,3.77
2018-05-14T18:07:48.618Z,3.70
2018-05-14T18:11:51.204Z,3.47
2018-05-14T18:15:54.177Z,3.70
2018-05-14T18:20:02.414Z,3.60
2018-05-14T18:24:05.847Z,3.97
2018-05-14T18:28:14.951Z,3.67
2018-05-14T18:32:31.946Z,3.83
2018-05-14T18:36:35.299Z,4.43
2018-05-14T18:45:08.692Z,3.90
2018-05-14T18:49:15.751Z,4.37
2018-05-14T18:53:19.152Z,4.10
2018-05-14T18:57:21.752Z,3.63
2018-05-14T19:01:39.264Z,3.63
2018-05-14T19:05:41.859Z,4.17
2018-05-14T19:09:45.148Z,3.83
2018-05-14T19:13:49.127Z,3.77
2018-05-14T19:17:58.041Z,4.00
2018-05-14T19:22:05.193Z,3.67
2018-05-14T19:26:08.515Z,3.33
2018-05-14T19:30:15.718Z,4.17
2018-05-14T19:34:24.554Z,3.40
2018-05-14T19:38:28.183Z,3.77
2018-05-14T19:42:35.281Z,3.33
2018-05-14T19:46:38.237Z,3.40
2018-05-14T19:50:44.508Z,3.20
2018-05-14T19:55:04.999Z,4.07
2018-05-14T19:59:07.514Z,2.93
2018-05-14T20:03:12.010Z,4.00
2018-05-14T20:07:15.324Z,3.77
2018-05-14T20:11:17.914Z,3.47
2018-05-14T20:15:31.952Z,3.33
2018-05-14T20:19:34.922Z,3.70
2018-05-14T20:23:37.452Z,4.30
2018-05-14T20:27:40.123Z,3.10
2018-05-14T20:31:42.670Z,3.40
2018-05-14T20:35:48.952Z,3.73
2018-05-14T20:39:51.679Z,3.40
2018-05-14T20:43:54.223Z,3.50
2018-05-14T20:47:56.772Z,3.40
2018-05-14T20:52:00.208Z,3.90
2018-05-14T20:56:02.727Z,3.10
2018-05-14T21:00:05.386Z,3.40
2018-05-14T21:04:08.703Z,3.43
2018-05-14T21:08:13.283Z,2.90
2018-05-14T21:12:16.566Z,3.53
2018-05-14T21:16:19.146Z,3.80
2018-05-14T21:20:21.662Z,3.40
2018-05-14T21:24:24.332Z,2.70
2018-05-14T21:28:26.882Z,3.40
2018-05-14T21:32:29.515Z,3.07
2018-05-14T21:36:32.030Z,3.10
2018-05-14T21:40:34.579Z,3.13
2018-05-14T21:44:37.101Z,3.47
2018-05-14T21:48:39.740Z,3.30
2018-05-14T21:52:42.266Z,3.00
2018-05-14T21:56:45.580Z,3.07
2018-05-14T22:00:48.102Z,3.00
2018-05-14T22:04:51.411Z,3.13
2018-05-14T22:08:53.943Z,3.33
2018-05-14T22:12:56.755Z,3.07
2018-05-14T22:16:59.271Z,3.00
2018-05-14T22:21:01.833Z,2.90
2018-05-14T22:25:04.355Z,3.13
2018-05-14T22:29:18.897Z,3.20
2018-05-14T22:33:21.432Z,2.80
2018-05-14T22:37:24.030Z,3.37
2018-05-14T22:41:26.506Z,2.90
2018-05-14T22:45:32.329Z,3.43
2018-05-14T22:49:34.850Z,3.27
2018-05-14T22:53:38.253Z,3.10
2018-05-14T22:57:40.769Z,3.50
2018-05-14T23:01:43.403Z,2.90
2018-05-14T23:05:45.934Z,2.77
2018-05-14T23:09:48.594Z,3.67
2018-05-14T23:13:51.893Z,3.23
2018-05-14T23:17:54.579Z,3.30
2018-05-14T23:21:57.100Z,3.20
2018-05-14T23:25:59.644Z,3.20
2018-05-14T23:30:02.166Z,3.60
2018-05-14T23:34:05.491Z,3.27
2018-05-14T23:38:08.008Z,3.03
2018-05-14T23:42:10.563Z,3.27
2018-05-14T23:46:13.079Z,3.10
2018-05-14T23:50:15.622Z,3.00
2018-05-14T23:54:18.143Z,3.40
2018-05-14T23:58:20.696Z,2.97
